This is the latest recevied weather packets stored in our database for station/object JE7UPL-13. If no packets are shown the sender has not sent any weather packets the latest 10 day(s).
| Time | Temp. | Humidity | Pressure | Rain* | Wind** | Luminosity | Snow |
|---|---|---|---|---|---|---|---|
| 1778100305 | 15.56° C | 69% | 1009.6 hPa | 0 mm | - | - | - |
| 1778099405 | 12.22° C | 76% | 1009.5 hPa | 0 mm | - | - | - |
| 1778098505 | 10.56° C | 79% | 1009.7 hPa | 0 mm | - | - | - |
| 1778097605 | 10.56° C | 79% | 1009.7 hPa | 0 mm | - | - | - |
| 1778096705 | 10° C | 79% | 1010 hPa | 0 mm | - | - | - |
| 1778095805 | 10.56° C | 80% | 1010 hPa | 0 mm | - | - | - |
| 1778094904 | 9.44° C | 79% | 1009.9 hPa | 0 mm | - | - | - |
| 1778094005 | 10° C | 77% | 1010.2 hPa | 0 mm | - | - | - |
| 1778093105 | 10.56° C | 75% | 1010.5 hPa | 0 mm | - | - | - |
| 1778092205 | 11.11° C | 75% | 1010.4 hPa | 0 mm | - | - | - |
| 1778091304 | 10.56° C | 75% | 1010.2 hPa | 0 mm | - | - | - |
| 1778090406 | 11.11° C | 73% | 1010.6 hPa | 0 mm | - | - | - |
| 1778089505 | 11.11° C | 72% | 1010.8 hPa | 0 mm | - | - | - |
| 1778088605 | 11.67° C | 71% | 1010.7 hPa | 0 mm | - | - | - |
| 1778087705 | 11.67° C | 70% | 1010.8 hPa | 0 mm | - | - | - |
| 1778086805 | 11.67° C | 69% | 1011 hPa | 0 mm | - | - | - |
| 1778085905 | 11.67° C | 67% | 1011.2 hPa | 0 mm | - | - | - |
| 1778085006 | 12.22° C | 64% | 1011.3 hPa | 0 mm | - | - | - |
| 1778084105 | 12.22° C | 63% | 1011.1 hPa | 0 mm | - | - | - |
| 1778083205 | 12.22° C | 63% | 1011.1 hPa | 0 mm | - | - | - |
| 1778082304 | 12.22° C | 62% | 1011.1 hPa | 0 mm | - | - | - |
| 1778081405 | 13.33° C | 59% | 1011.2 hPa | 0 mm | - | - | - |
| 1778080505 | 13.89° C | 56% | 1011.3 hPa | 0 mm | - | - | - |
| 1778079609 | 13.89° C | 56% | 1011.1 hPa | 0 mm | - | - | - |
| 1778078705 | 14.44° C | 53% | 1011 hPa | 0 mm | - | - | - |
* Rain latest hour (hover to see other rain measurements)
** Current wind speed in m/s (hover to see current wind gust speed)